Time;durP1;ratioP1;P1;durP2;ratioP2;P2;SDS_P1;SDS_P2;PMS_P1;PMS_P2;Temp;Humidity;BMP_temperature;BMP_pressure;BME280_temperature;BME280_humidity;BME280_pressure;Samples;Min_cycle;Max_cycle;Signal;HPM_P1;HPM_P2
2023/07/06 00:02:00;;;;;;;;;;;;;;;15.30;62.58;96622.69;4967469;29;19971;-75
2023/07/06 00:04:26;;;;;;;;;;;;;;;15.25;62.60;96625.28;4967778;29;20242;-75
2023/07/06 00:06:52;;;;;;;;;;;;;;;15.19;62.94;96629.69;4967580;29;20003;-76
2023/07/06 00:09:18;;;;;;;;;;;;;;;15.15;62.97;96623.28;4968762;29;20006;-75
2023/07/06 00:11:44;;;;;;;;;;;;;;;15.11;64.42;96638.00;4967306;29;19956;-75
2023/07/06 00:14:11;;;;;;;;;;;;;;;15.03;64.37;96639.22;4967297;29;19960;-76
2023/07/06 00:16:43;;;;;;;;;;;;;;;14.99;64.59;96632.81;4951022;29;19950;-69
2023/07/06 00:19:09;;;;;;;;;;;;;;;14.95;64.59;96637.78;4967688;29;19965;-69
2023/07/06 00:21:35;;;;;;;;;;;;;;;14.92;65.17;96640.09;4968647;29;20294;-69
2023/07/06 00:24:01;;;;;;;;;;;;;;;14.90;65.45;96644.81;4968557;29;20016;-69
2023/07/06 00:26:27;;;;;;;;;;;;;;;14.86;64.58;96641.84;4968090;28;19959;-69
2023/07/06 00:28:58;;;;;;;;;;;;;;;14.83;65.49;96645.00;4967099;29;19961;-69
2023/07/06 00:31:40;;;;;;;;;;;;;;;14.79;65.27;96647.28;4968314;29;20110;-69
2023/07/06 00:34:07;;;;;;;;;;;;;;;14.73;65.54;96637.69;4968444;29;19966;-73
2023/07/06 00:36:37;;;;;;;;;;;;;;;14.70;66.13;96634.72;4966990;29;19958;-72
2023/07/06 00:39:03;;;;;;;;;;;;;;;14.67;66.34;96641.28;4966820;29;20249;-73
2023/07/06 00:41:30;;;;;;;;;;;;;;;14.65;66.06;96638.09;4966722;29;20281;-74
2023/07/06 00:43:56;;;;;;;;;;;;;;;14.64;66.22;96636.50;4968249;29;20114;-76
2023/07/06 00:46:29;;;;;;;;;;;;;;;14.61;66.25;96632.50;4967276;29;19981;-75
2023/07/06 00:48:56;;;;;;;;;;;;;;;14.58;66.88;96629.53;4968267;29;19953;-71
2023/07/06 00:51:27;;;;;;;;;;;;;;;14.55;67.20;96628.19;4968254;29;19958;-70
2023/07/06 00:53:59;;;;;;;;;;;;;;;14.54;67.31;96631.81;4966968;29;20061;-69
2023/07/06 00:56:27;;;;;;;;;;;;;;;14.51;67.14;96624.38;4967826;29;19960;-70
2023/07/06 00:59:02;;;;;;;;;;;;;;;14.48;66.73;96619.56;4966582;29;19959;-70
2023/07/06 01:01:29;;;;;;;;;;;;;;;14.46;67.55;96616.34;4966644;29;20167;-70
2023/07/06 01:03:56;;;;;;;;;;;;;;;14.44;68.17;96610.53;4968067;29;19953;-70
2023/07/06 01:06:27;;;;;;;;;;;;;;;14.40;67.89;96610.22;4966267;29;20149;-70
2023/07/06 01:08:54;;;;;;;;;;;;;;;14.37;67.74;96610.69;4967513;29;19965;-71
2023/07/06 01:11:20;;;;;;;;;;;;;;;14.34;68.75;96605.06;4967424;29;19957;-71
2023/07/06 01:13:48;;;;;;;;;;;;;;;14.32;68.63;96612.41;4966578;29;20246;-71
2023/07/06 01:16:18;;;;;;;;;;;;;;;14.28;68.46;96606.00;4966127;29;19957;-71
2023/07/06 01:18:51;;;;;;;;;;;;;;;14.24;68.47;96608.34;4967314;29;20109;-71
2023/07/06 01:21:22;;;;;;;;;;;;;;;14.22;68.49;96607.78;4967513;29;19962;-71
2023/07/06 01:24:07;;;;;;;;;;;;;;;14.17;67.60;96600.59;4967591;29;19955;-71
2023/07/06 01:26:42;;;;;;;;;;;;;;;14.13;68.23;96617.91;4966066;29;19954;-69
2023/07/06 01:29:19;;;;;;;;;;;;;;;14.11;68.70;96621.81;4967545;29;19961;-71
2023/07/06 01:31:57;;;;;;;;;;;;;;;14.08;68.80;96624.91;4966103;29;19962;-70
2023/07/06 01:34:26;;;;;;;;;;;;;;;14.04;69.32;96631.69;4967364;29;19953;-70
2023/07/06 01:37:11;;;;;;;;;;;;;;;14.01;70.20;96614.53;4967300;29;19961;-70
2023/07/06 01:39:36;;;;;;;;;;;;;;;13.97;69.48;96606.28;4966347;28;19959;-70
2023/07/06 01:42:14;;;;;;;;;;;;;;;13.95;69.67;96610.19;4967117;29;19971;-70
2023/07/06 01:44:45;;;;;;;;;;;;;;;13.89;69.73;96609.28;4967181;29;19970;-70
2023/07/06 01:47:11;;;;;;;;;;;;;;;13.87;69.56;96608.72;4967080;29;19970;-74
2023/07/06 01:49:38;;;;;;;;;;;;;;;13.86;69.75;96609.75;4965991;29;19983;-70
2023/07/06 01:52:07;;;;;;;;;;;;;;;13.84;70.64;96616.28;4966691;29;20248;-70
2023/07/06 01:54:38;;;;;;;;;;;;;;;13.79;69.91;96623.03;4966741;29;20147;-71
2023/07/06 01:57:07;;;;;;;;;;;;;;;13.78;71.13;96620.66;4966847;29;19959;-71
2023/07/06 01:59:36;;;;;;;;;;;;;;;13.75;71.24;96621.13;4966444;29;19965;-71
2023/07/06 02:02:05;;;;;;;;;;;;;;;13.71;71.42;96619.97;4966786;29;19954;-71
2023/07/06 02:04:33;;;;;;;;;;;;;;;13.67;71.43;96624.13;4966770;29;20150;-71
2023/07/06 02:07:05;;;;;;;;;;;;;;;13.60;70.84;96617.13;4966368;29;20224;-72
2023/07/06 02:09:30;;;;;;;;;;;;;;;13.57;71.35;96617.63;4965430;29;19961;-71
2023/07/06 02:11:57;;;;;;;;;;;;;;;13.53;71.58;96610.41;4966687;29;20020;-71
2023/07/06 02:14:23;;;;;;;;;;;;;;;13.50;72.43;96616.13;4966325;29;19974;-71
2023/07/06 02:16:50;;;;;;;;;;;;;;;13.46;73.32;96623.72;4966514;29;20099;-71
2023/07/06 02:19:23;;;;;;;;;;;;;;;13.41;73.78;96623.59;4966307;29;19968;-71
2023/07/06 02:21:49;;;;;;;;;;;;;;;13.37;73.76;96625.88;4966619;29;19953;-70
2023/07/06 02:24:15;;;;;;;;;;;;;;;13.35;73.99;96622.69;4966440;29;19963;-70
2023/07/06 02:26:41;;;;;;;;;;;;;;;13.33;74.77;96637.13;4966375;29;19980;-70
2023/07/06 02:29:07;;;;;;;;;;;;;;;13.30;74.22;96624.41;4965885;29;19968;-71
2023/07/06 02:31:34;;;;;;;;;;;;;;;13.29;75.10;96628.91;4966425;29;20241;-71
2023/07/06 02:34:01;;;;;;;;;;;;;;;13.26;74.37;96617.97;4966559;29;19941;-71
2023/07/06 02:36:26;;;;;;;;;;;;;;;13.24;74.87;96612.94;4966172;29;19956;-70
2023/07/06 02:38:52;;;;;;;;;;;;;;;13.22;74.97;96616.84;4966499;29;19953;-70
2023/07/06 02:41:19;;;;;;;;;;;;;;;13.21;74.05;96621.31;4966003;29;20283;-71
2023/07/06 02:43:45;;;;;;;;;;;;;;;13.21;74.49;96618.66;4966009;29;19966;-69
2023/07/06 02:46:16;;;;;;;;;;;;;;;13.21;74.56;96618.66;4964765;29;19961;-69
2023/07/06 02:48:42;;;;;;;;;;;;;;;13.20;74.55;96617.84;4966162;29;19968;-68
2023/07/06 02:51:08;;;;;;;;;;;;;;;13.19;76.48;96620.75;4967660;28;20107;-69
2023/07/06 02:53:34;;;;;;;;;;;;;;;13.17;75.56;96614.91;4968894;29;19960;-69
2023/07/06 02:56:00;;;;;;;;;;;;;;;13.17;75.75;96615.69;4970048;29;19967;-68
2023/07/06 02:58:27;;;;;;;;;;;;;;;13.16;75.34;96608.81;4969695;29;20021;-70
2023/07/06 03:00:54;;;;;;;;;;;;;;;13.17;75.39;96607.00;4970318;29;19948;-70
2023/07/06 03:03:26;;;;;;;;;;;;;;;13.15;75.01;96601.16;4969076;29;19967;-69
2023/07/06 03:05:52;;;;;;;;;;;;;;;13.14;75.58;96605.59;4969996;29;19954;-69
2023/07/06 03:08:19;;;;;;;;;;;;;;;13.13;75.44;96609.28;4969490;29;19964;-69
2023/07/06 03:10:47;;;;;;;;;;;;;;;13.12;76.16;96614.75;4969705;29;20137;-69
2023/07/06 03:13:14;;;;;;;;;;;;;;;13.09;76.92;96610.75;4969832;29;20260;-69
2023/07/06 03:15:41;;;;;;;;;;;;;;;13.07;76.58;96612.03;4968378;29;20176;-69
2023/07/06 03:18:07;;;;;;;;;;;;;;;13.03;76.42;96606.41;4969751;29;19958;-71
2023/07/06 03:20:36;;;;;;;;;;;;;;;13.02;76.37;96606.63;4969594;29;19975;-75
2023/07/06 03:23:02;;;;;;;;;;;;;;;12.99;75.90;96600.00;4969927;29;19968;-76
2023/07/06 03:25:28;;;;;;;;;;;;;;;12.96;75.40;96603.09;4969681;29;19953;-75
2023/07/06 03:27:55;;;;;;;;;;;;;;;12.95;76.11;96610.19;4968978;29;19971;-75
2023/07/06 03:30:22;;;;;;;;;;;;;;;12.94;76.25;96611.22;4969779;29;19961;-75
2023/07/06 03:32:48;;;;;;;;;;;;;;;12.94;76.05;96613.06;4969435;29;19962;-75
2023/07/06 03:35:14;;;;;;;;;;;;;;;12.90;76.01;96607.44;4968367;29;20177;-72
2023/07/06 03:37:45;;;;;;;;;;;;;;;12.88;76.07;96606.88;4969698;29;19961;-70
2023/07/06 03:40:11;;;;;;;;;;;;;;;12.85;76.63;96604.72;4968228;29;19969;-70
2023/07/06 03:42:39;;;;;;;;;;;;;;;12.84;76.43;96604.94;4969071;29;19955;-70
2023/07/06 03:45:05;;;;;;;;;;;;;;;12.82;76.56;96596.47;4969183;29;19958;-70
2023/07/06 03:47:33;;;;;;;;;;;;;;;12.79;77.23;96605.63;4969062;29;20257;-70
2023/07/06 03:49:59;;;;;;;;;;;;;;;12.77;77.21;96597.16;4967845;29;19961;-71
2023/07/06 03:52:27;;;;;;;;;;;;;;;12.73;76.54;96606.53;4969247;29;19959;-70
2023/07/06 03:54:53;;;;;;;;;;;;;;;12.71;76.46;96609.38;4967773;29;19956;-70
2023/07/06 03:57:19;;;;;;;;;;;;;;;12.69;78.37;96613.28;4968786;29;19969;-75
2023/07/06 03:59:45;;;;;;;;;;;;;;;12.65;77.42;96605.03;4952022;29;20004;-75
2023/07/06 04:02:12;;;;;;;;;;;;;;;12.64;77.80;96606.06;4968686;28;19964;-74
2023/07/06 04:04:39;;;;;;;;;;;;;;;12.64;77.26;96603.44;4968613;29;19955;-76
2023/07/06 04:07:10;;;;;;;;;;;;;;;12.64;76.53;96592.09;4968583;29;20131;-75
2023/07/06 04:09:36;;;;;;;;;;;;;;;12.64;77.49;96599.97;4968957;29;19966;-75
2023/07/06 04:12:02;;;;;;;;;;;;;;;12.61;78.20;96603.88;4951270;29;19969;-74
2023/07/06 04:14:29;;;;;;;;;;;;;;;12.64;77.98;96613.13;4967585;29;20006;-70
2023/07/06 04:16:56;;;;;;;;;;;;;;;12.64;76.90;96606.06;4967288;29;19970;-70
2023/07/06 04:19:22;;;;;;;;;;;;;;;12.67;77.21;96618.75;4968692;29;19955;-70
2023/07/06 04:21:48;;;;;;;;;;;;;;;12.71;77.92;96625.16;4967263;29;19960;-70
2023/07/06 04:24:16;;;;;;;;;;;;;;;12.73;78.50;96628.38;4968818;29;19967;-70
2023/07/06 04:26:45;;;;;;;;;;;;;;;12.78;78.71;96620.59;4968777;29;20006;-70
2023/07/06 04:29:11;;;;;;;;;;;;;;;12.83;78.16;96625.19;4968427;29;19961;-70
2023/07/06 04:31:37;;;;;;;;;;;;;;;12.87;78.20;96628.16;4968527;29;19957;-71
2023/07/06 04:34:03;;;;;;;;;;;;;;;12.92;77.83;96628.28;4967295;29;19965;-71
2023/07/06 04:36:31;;;;;;;;;;;;;;;12.98;77.79;96622.13;4968155;29;20240;-71
2023/07/06 04:38:59;;;;;;;;;;;;;;;13.05;77.20;96628.06;4968269;29;19962;-71
2023/07/06 04:41:25;;;;;;;;;;;;;;;13.08;77.90;96622.34;4968181;29;20252;-71
2023/07/06 04:43:52;;;;;;;;;;;;;;;13.15;78.10;96624.84;4968276;29;20122;-71
2023/07/06 04:46:18;;;;;;;;;;;;;;;13.19;77.28;96618.91;4968195;29;20115;-70
2023/07/06 04:48:44;;;;;;;;;;;;;;;13.26;77.98;96631.16;4968096;29;19967;-70
2023/07/06 04:51:11;;;;;;;;;;;;;;;13.32;77.28;96620.50;4968245;29;19948;-71
2023/07/06 04:53:38;;;;;;;;;;;;;;;13.39;77.26;96623.03;4966293;29;19972;-74
2023/07/06 04:56:04;;;;;;;;;;;;;;;13.44;76.77;96624.97;4965700;29;19961;-75
2023/07/06 04:58:30;;;;;;;;;;;;;;;13.52;76.74;96614.06;4966122;29;19960;-74
2023/07/06 05:01:02;;;;;;;;;;;;;;;13.59;76.63;96620.03;4949683;29;19954;-76
2023/07/06 05:03:30;;;;;;;;;;;;;;;13.66;77.17;96633.06;4965895;29;19960;-74
2023/07/06 05:05:59;;;;;;;;;;;;;;;13.70;76.54;96626.31;4965574;29;19960;-75
2023/07/06 05:08:25;;;;;;;;;;;;;;;13.75;76.58;96631.66;4949491;29;19967;-70
2023/07/06 05:10:52;;;;;;;;;;;;;;;13.79;76.50;96636.22;4933762;29;20305;-70
2023/07/06 05:13:19;;;;;;;;;;;;;;;13.89;76.12;96632.22;4964867;28;20158;-71
2023/07/06 05:15:45;;;;;;;;;;;;;;;14.00;75.72;96629.53;4965410;29;19954;-71
2023/07/06 05:18:10;;;;;;;;;;;;;;;14.11;75.21;96627.06;4965261;29;19987;-71
2023/07/06 05:20:36;;;;;;;;;;;;;;;14.25;74.31;96632.88;4965810;29;19975;-71
2023/07/06 05:23:04;;;;;;;;;;;;;;;14.38;74.44;96630.75;4949838;29;20264;-71
2023/07/06 05:25:30;;;;;;;;;;;;;;;14.58;74.76;96632.16;4967355;29;19959;-74
2023/07/06 05:27:56;;;;;;;;;;;;;;;14.73;73.33;96619.22;4965726;29;19976;-71
2023/07/06 05:30:23;;;;;;;;;;;;;;;14.90;73.67;96623.69;4967515;29;19954;-71
2023/07/06 05:32:49;;;;;;;;;;;;;;;15.01;72.94;96628.09;4965909;29;19956;-71
2023/07/06 05:35:15;;;;;;;;;;;;;;;15.17;71.50;96621.19;4967089;29;19960;-71
2023/07/06 05:37:41;;;;;;;;;;;;;;;15.29;71.03;96613.97;4967101;29;19958;-71
2023/07/06 05:40:08;;;;;;;;;;;;;;;15.48;70.94;96611.06;4965856;29;19951;-71
2023/07/06 05:42:34;;;;;;;;;;;;;;;15.64;69.97;96610.19;4967144;29;19962;-71
2023/07/06 05:45:00;;;;;;;;;;;;;;;15.66;69.72;96618.66;4965800;29;19957;-74
2023/07/06 05:47:26;;;;;;;;;;;;;;;15.73;69.65;96611.38;4967050;29;19960;-75
2023/07/06 05:49:53;;;;;;;;;;;;;;;15.76;69.85;96612.72;4966988;29;19996;-75
2023/07/06 05:52:19;;;;;;;;;;;;;;;15.92;69.79;96609.22;4967149;29;19971;-75
2023/07/06 05:54:44;;;;;;;;;;;;;;;15.92;68.25;96605.78;4965342;29;19964;-74
2023/07/06 05:57:10;;;;;;;;;;;;;;;15.96;68.66;96615.63;4966477;29;20254;-75
2023/07/06 05:59:41;;;;;;;;;;;;;;;16.12;68.44;96618.41;4966603;29;19961;-78
2023/07/06 06:02:08;;;;;;;;;;;;;;;16.37;69.31;96618.66;4966295;29;19958;-71
2023/07/06 06:04:34;;;;;;;;;;;;;;;16.79;68.00;96617.19;4966609;29;20241;-69
2023/07/06 06:06:59;;;;;;;;;;;;;;;17.28;66.59;96611.69;4966645;29;19997;-70
2023/07/06 06:09:25;;;;;;;;;;;;;;;17.67;63.82;96597.31;4966701;29;19961;-70
2023/07/06 06:11:54;;;;;;;;;;;;;;;17.78;62.25;96589.13;4966738;29;20024;-69
2023/07/06 06:14:20;;;;;;;;;;;;;;;17.81;62.44;96595.78;4966588;29;19949;-69
2023/07/06 06:16:47;;;;;;;;;;;;;;;18.04;62.05;96605.19;4966390;29;19948;-69
2023/07/06 06:19:12;;;;;;;;;;;;;;;18.29;62.58;96601.78;4966532;29;19956;-69
2023/07/06 06:21:38;;;;;;;;;;;;;;;18.51;62.68;96600.75;4966568;29;20000;-77
2023/07/06 06:24:08;;;;;;;;;;;;;;;18.79;60.55;96591.47;4966469;29;19969;-76
2023/07/06 06:26:35;;;;;;;;;;;;;;;19.04;58.79;96588.78;4966086;28;19956;-76
2023/07/06 06:29:02;;;;;;;;;;;;;;;19.12;58.43;96591.97;4966350;29;20256;-76
2023/07/06 06:31:28;;;;;;;;;;;;;;;19.24;57.60;96584.50;4966200;29;19973;-75
2023/07/06 06:33:53;;;;;;;;;;;;;;;19.34;58.01;96588.97;4964940;29;20298;-75
2023/07/06 06:36:19;;;;;;;;;;;;;;;19.42;58.58;96599.06;4964876;29;19996;-76
2023/07/06 06:38:46;;;;;;;;;;;;;;;19.53;57.46;96587.34;4966177;29;19960;-70
2023/07/06 06:41:12;;;;;;;;;;;;;;;19.65;57.65;96595.81;4966912;29;19959;-70
2023/07/06 06:43:38;;;;;;;;;;;;;;;19.72;56.92;96592.06;4966079;29;19961;-72
2023/07/06 06:46:05;;;;;;;;;;;;;;;19.80;55.73;96594.16;4966189;29;19948;-72
2023/07/06 06:48:32;;;;;;;;;;;;;;;19.97;55.55;96591.97;4965054;29;19972;-71
2023/07/06 06:50:58;;;;;;;;;;;;;;;20.17;56.51;96599.03;4965011;29;20248;-71
2023/07/06 06:53:26;;;;;;;;;;;;;;;20.34;55.62;96601.31;4965721;29;19964;-72
2023/07/06 06:55:52;;;;;;;;;;;;;;;20.41;54.44;96590.34;4965664;29;19967;-72
2023/07/06 06:58:20;;;;;;;;;;;;;;;20.41;53.15;96591.16;4966161;29;19957;-70
2023/07/06 07:00:56;;;;;;;;;;;;;;;20.53;54.07;96595.34;4948667;29;19960;-70
2023/07/06 07:03:22;;;;;;;;;;;;;;;20.64;54.62;96589.69;4965945;29;19957;-69
2023/07/06 07:05:57;;;;;;;;;;;;;;;20.76;52.53;96591.97;4964620;29;19963;-68
2023/07/06 07:08:22;;;;;;;;;;;;;;;20.83;53.62;96594.31;4965849;29;19980;-70
2023/07/06 07:10:52;;;;;;;;;;;;;;;20.88;54.34;96607.63;4966257;29;20019;-70
2023/07/06 07:13:17;;;;;;;;;;;;;;;20.96;51.87;96590.25;4966383;29;19963;-70
2023/07/06 07:15:43;;;;;;;;;;;;;;;21.08;49.66;96590.63;4965513;29;19959;-71
2023/07/06 07:18:09;;;;;;;;;;;;;;;21.13;50.02;96593.25;4966006;29;20003;-72
2023/07/06 07:20:36;;;;;;;;;;;;;;;21.28;51.98;96597.66;4964567;29;19969;-71
2023/07/06 07:23:01;;;;;;;;;;;;;;;21.42;49.43;96597.81;4965925;29;19960;-71
2023/07/06 07:25:28;;;;;;;;;;;;;;;21.46;51.90;96606.81;4964588;29;20261;-71
2023/07/06 07:27:55;;;;;;;;;;;;;;;21.52;46.18;96587.00;4965555;29;19968;-71
2023/07/06 07:30:21;;;;;;;;;;;;;;;21.69;47.08;96594.53;4965645;29;19959;-70
2023/07/06 07:32:47;;;;;;;;;;;;;;;21.89;47.67;96585.50;4965786;29;20149;-70
2023/07/06 07:35:13;;;;;;;;;;;;;;;22.04;46.33;96590.63;4965792;29;19959;-72
2023/07/06 07:37:39;;;;;;;;;;;;;;;22.18;46.29;96585.38;4966347;28;19978;-70
2023/07/06 07:40:05;;;;;;;;;;;;;;;22.12;45.62;96599.09;4969287;29;19943;-70
2023/07/06 07:42:31;;;;;;;;;;;;;;;22.08;44.08;96599.66;4969282;29;19978;-70
2023/07/06 07:44:57;;;;;;;;;;;;;;;22.05;43.69;96604.78;4969006;29;20229;-70
2023/07/06 07:47:24;;;;;;;;;;;;;;;22.14;44.12;96597.72;4968876;29;20236;-71
2023/07/06 07:49:49;;;;;;;;;;;;;;;22.29;45.71;96602.06;4968808;29;19967;-70
2023/07/06 07:52:16;;;;;;;;;;;;;;;22.44;45.43;96599.16;4967917;29;19961;-72
2023/07/06 07:54:43;;;;;;;;;;;;;;;22.59;44.39;96602.69;4969189;29;19951;-70
2023/07/06 07:57:09;;;;;;;;;;;;;;;22.68;44.50;96600.97;4967730;29;19971;-76
2023/07/06 07:59:35;;;;;;;;;;;;;;;22.79;44.04;96606.94;4967848;29;19958;-76
2023/07/06 08:02:01;;;;;;;;;;;;;;;22.90;47.06;96614.47;4968438;29;20029;-76
2023/07/06 08:04:27;;;;;;;;;;;;;;;22.97;43.78;96603.41;4968932;29;20212;-76
2023/07/06 08:06:54;;;;;;;;;;;;;;;23.04;40.93;96597.72;4968899;29;19962;-76
2023/07/06 08:09:20;;;;;;;;;;;;;;;23.11;40.65;96598.13;4968649;29;19955;-76
2023/07/06 08:11:46;;;;;;;;;;;;;;;23.17;40.83;96609.53;4968991;29;20134;-72
2023/07/06 08:14:12;;;;;;;;;;;;;;;23.21;41.37;96605.97;4967704;29;19964;-71
2023/07/06 08:16:42;;;;;;;;;;;;;;;23.24;41.99;96601.91;4968328;29;20154;-71
2023/07/06 08:19:08;;;;;;;;;;;;;;;23.25;39.99;96598.16;4968337;29;19961;-71
2023/07/06 08:21:34;;;;;;;;;;;;;;;23.24;41.88;96608.03;4968385;29;19997;-71
2023/07/06 08:24:00;;;;;;;;;;;;;;;23.32;42.69;96611.94;4968659;29;19961;-71
2023/07/06 08:26:29;;;;;;;;;;;;;;;23.36;42.41;96604.09;4968387;29;19976;-71
2023/07/06 08:28:55;;;;;;;;;;;;;;;23.45;41.81;96611.13;4968303;29;19965;-72
2023/07/06 08:31:21;;;;;;;;;;;;;;;23.58;41.66;96606.09;4966705;29;20124;-71
2023/07/06 08:33:47;;;;;;;;;;;;;;;23.63;40.13;96596.06;4967073;29;19982;-71
2023/07/06 08:36:18;;;;;;;;;;;;;;;23.67;40.54;96604.31;4968342;29;19951;-72
2023/07/06 08:38:44;;;;;;;;;;;;;;;23.69;40.74;96610.94;4967280;29;19962;-72
2023/07/06 08:41:12;;;;;;;;;;;;;;;23.77;39.29;96600.66;4968108;29;19994;-72
2023/07/06 08:43:39;;;;;;;;;;;;;;;23.94;39.59;96610.75;4967768;29;19952;-72
2023/07/06 08:46:06;;;;;;;;;;;;;;;23.98;39.00;96599.16;4968077;29;19962;-71
2023/07/06 08:48:34;;;;;;;;;;;;;;;24.05;37.90;96598.75;4966686;28;19961;-72
2023/07/06 08:51:03;;;;;;;;;;;;;;;23.99;39.32;96598.03;4966497;29;19968;-72
2023/07/06 08:53:29;;;;;;;;;;;;;;;;;;4966518;29;19952;-72
2023/07/06 08:55:56;;;;;;;;;;;;;;;23.60;34.82;96599.38;4967535;29;19972;-72
2023/07/06 08:58:26;;;;;;;;;;;;;;;23.62;37.50;96607.88;4967918;29;20041;-73
2023/07/06 09:01:00;;;;;;;;;;;;;;;23.77;37.29;96598.78;4967888;29;19955;-73
2023/07/06 09:03:26;;;;;;;;;;;;;;;23.77;37.29;96600.66;4968014;29;19955;-72
2023/07/06 09:05:52;;;;;;;;;;;;;;;23.79;35.79;96599.28;4967857;29;19954;-71
2023/07/06 09:08:18;;;;;;;;;;;;;;;23.75;35.22;96608.97;4966471;29;19979;-72
2023/07/06 09:10:44;;;;;;;;;;;;;;;23.77;34.78;96600.66;4966714;29;19975;-72
2023/07/06 09:13:13;;;;;;;;;;;;;;;23.81;34.42;96601.63;4967807;29;20227;-72
2023/07/06 09:15:44;;;;;;;;;;;;;;;23.85;36.06;96605.31;4965630;29;20365;-73
2023/07/06 09:18:10;;;;;;;;;;;;;;;;;;4966121;29;20159;-72
2023/07/06 09:20:35;;;;;;;;;;;;;;;23.94;35.63;96608.06;4967519;29;19953;-72
2023/07/06 09:23:05;;;;;;;;;;;;;;;23.97;35.74;96610.94;4950228;29;19966;-73
2023/07/06 09:25:35;;;;;;;;;;;;;;;23.96;35.84;96608.56;4950705;29;19961;-84
2023/07/06 09:28:03;;;;;;;;;;;;;;;24.10;37.83;96610.13;4950618;29;19946;-78
2023/07/06 09:30:32;;;;;;;;;;;;;;;24.26;37.86;96601.78;4967352;29;19964;-77
2023/07/06 09:33:13;;;;;;;;;;;;;;;24.39;35.66;96602.81;4966358;29;20205;-77
2023/07/06 09:35:39;;;;;;;;;;;;;;;24.64;38.21;96601.47;4967294;29;20143;-77
2023/07/06 09:38:06;;;;;;;;;;;;;;;24.88;35.76;96606.50;4966925;29;20224;-79
2023/07/06 09:40:32;;;;;;;;;;;;;;;24.98;35.58;96603.56;4967165;29;19965;-78
2023/07/06 09:42:58;;;;;;;;;;;;;;;25.04;35.41;96599.66;4967069;29;19957;-72
2023/07/06 09:45:29;;;;;;;;;;;;;;;24.96;33.59;96602.28;4966530;29;19953;-71
2023/07/06 09:48:07;;;;;;;;;;;;;;;24.98;32.31;96603.56;4965736;29;20249;-72
2023/07/06 09:50:35;;;;;;;;;;;;;;;24.82;32.11;96608.53;4967520;29;19963;-72
2023/07/06 09:53:05;;;;;;;;;;;;;;;24.77;34.57;96605.19;4965991;29;19961;-71
2023/07/06 09:55:31;;;;;;;;;;;;;;;24.83;34.23;96612.00;4966154;29;20119;-72
2023/07/06 09:57:57;;;;;;;;;;;;;;;24.99;34.77;96612.41;4966978;29;20268;-72
2023/07/06 10:00:29;;;;;;;;;;;;;;;25.22;35.01;96605.13;4966706;28;19964;-72
2023/07/06 10:03:08;;;;;;;;;;;;;;;25.29;34.41;96600.13;4966847;29;20069;-71
2023/07/06 10:05:42;;;;;;;;;;;;;;;25.27;35.26;96611.16;4965560;29;19955;-72
2023/07/06 10:08:11;;;;;;;;;;;;;;;25.46;33.26;96594.81;4966837;29;19962;-72
2023/07/06 10:10:42;;;;;;;;;;;;;;;25.52;32.99;96598.16;4965248;29;20165;-72
2023/07/06 10:13:40;;;;;;;;;;;;;;;25.39;33.84;96604.41;4965675;29;19951;-72
2023/07/06 10:16:08;;;;;;;;;;;;;;;25.10;33.91;96600.31;4944559;28;19963;-73
2023/07/06 10:18:51;;;;;;;;;;;;;;;24.70;33.60;96595.66;4965525;29;20140;-71
2023/07/06 10:21:37;;;;;;;;;;;;;;;24.39;32.73;96610.84;4965114;29;19968;-78
2023/07/06 10:24:22;;;;;;;;;;;;;;;24.02;34.17;96610.84;4966653;29;19954;-72
2023/07/06 10:26:52;;;;;;;;;;;;;;;23.78;35.35;96612.97;4966244;29;19986;-72
2023/07/06 10:29:27;;;;;;;;;;;;;;;23.69;35.49;96612.84;4965976;29;19968;-72
2023/07/06 10:31:56;;;;;;;;;;;;;;;23.63;34.70;96611.34;4966141;29;19953;-72
2023/07/06 10:34:33;;;;;;;;;;;;;;;23.59;36.11;96611.16;4966112;29;19958;-71
2023/07/06 10:37:01;;;;;;;;;;;;;;;23.62;35.60;96615.91;4966532;29;19955;-71
2023/07/06 10:39:29;;;;;;;;;;;;;;;23.69;36.57;96607.47;4966288;29;19953;-71
2023/07/06 10:42:03;;;;;;;;;;;;;;;23.81;36.98;96609.66;4966324;29;20243;-77
2023/07/06 10:44:44;;;;;;;;;;;;;;;24.05;34.41;96604.88;4964725;29;20143;-77
2023/07/06 10:47:28;;;;;;;;;;;;;;;24.10;34.72;96604.75;4966217;29;19958;-77
2023/07/06 10:50:03;;;;;;;;;;;;;;;24.09;35.07;96607.75;4966131;29;19966;-76
2023/07/06 10:52:30;;;;;;;;;;;;;;;24.04;35.51;96611.34;4966342;29;19957;-74
2023/07/06 10:54:56;;;;;;;;;;;;;;;23.99;36.26;96616.00;4966055;29;19956;-74
2023/07/06 10:57:22;;;;;;;;;;;;;;;24.00;36.96;96617.59;4966161;29;19961;-72
2023/07/06 10:59:48;;;;;;;;;;;;;;;24.12;37.03;96609.81;4948777;29;20190;-72
2023/07/06 11:02:17;;;;;;;;;;;;;;;24.44;35.44;96603.50;4965624;29;19958;-72
2023/07/06 11:04:52;;;;;;;;;;;;;;;24.65;33.12;96605.72;4966020;29;19956;-73
2023/07/06 11:07:39;;;;;;;;;;;;;;;24.70;31.65;96606.41;4964698;29;20143;-72
2023/07/06 11:10:15;;;;;;;;;;;;;;;24.44;33.47;96602.69;4955123;29;19989;-72
2023/07/06 11:13:01;;;;;;;;;;;;;;;24.24;34.24;96604.75;4968021;28;20246;-72
2023/07/06 11:15:30;;;;;;;;;;;;;;;24.29;34.17;96607.28;4968451;29;19963;-70
2023/07/06 11:17:57;;;;;;;;;;;;;;;24.61;33.69;96605.56;4952513;29;19967;-70
2023/07/06 11:20:28;;;;;;;;;;;;;;;24.70;32.89;96598.34;4968227;29;19958;-70
2023/07/06 11:22:57;;;;;;;;;;;;;;;24.75;34.02;96596.63;4969996;29;19943;-70
2023/07/06 11:25:24;;;;;;;;;;;;;;;24.96;33.58;96599.63;4969707;29;19961;-71
2023/07/06 11:27:55;;;;;;;;;;;;;;;25.21;34.56;96607.03;4969524;29;19978;-71
2023/07/06 11:30:25;;;;;;;;;;;;;;;25.55;33.82;96599.44;4969645;29;19963;-71
2023/07/06 11:33:24;;;;;;;;;;;;;;;25.76;32.90;96592.38;4969303;29;19966;-71
2023/07/06 11:36:08;;;;;;;;;;;;;;;25.85;28.58;96598.59;4937166;29;19980;-72
2023/07/06 11:38:42;;;;;;;;;;;;;;;26.06;31.34;96587.25;4968564;29;19965;-73
2023/07/06 11:41:11;;;;;;;;;;;;;;;26.33;31.79;96594.22;4968136;29;20144;-73
2023/07/06 11:43:50;;;;;;;;;;;;;;;26.31;29.39;96591.88;4969578;29;19965;-73
2023/07/06 11:46:49;;;;;;;;;;;;;;;26.24;30.48;96591.53;4968510;29;19963;-73
2023/07/06 11:49:15;;;;;;;;;;;;;;;26.21;32.43;96586.81;4947037;28;19970;-73
2023/07/06 11:51:41;;;;;;;;;;;;;;;26.30;28.27;96581.44;4967863;29;19994;-73
2023/07/06 11:54:29;;;;;;;;;;;;;;;26.40;31.02;96580.34;4967789;29;19965;-73
2023/07/06 11:57:24;;;;;;;;;;;;;;;26.15;30.02;96579.22;4968752;29;19957;-73
2023/07/06 12:00:16;;;;;;;;;;;;;;;26.02;31.77;96570.19;4967342;29;19957;-73
2023/07/06 12:02:43;;;;;;;;;;;;;;;26.00;30.26;96575.09;4967281;29;20303;-73
2023/07/06 12:05:21;;;;;;;;;;;;;;;26.23;32.12;96573.84;4967555;29;19961;-73
2023/07/06 12:07:56;;;;;;;;;;;;;;;26.67;32.26;96571.16;4967445;29;19963;-73
2023/07/06 12:10:22;;;;;;;;;;;;;;;26.78;30.55;96572.41;4968959;29;19975;-73
2023/07/06 12:12:49;;;;;;;;;;;;;;;26.87;29.11;96567.00;4968905;29;19953;-72
2023/07/06 12:15:16;;;;;;;;;;;;;;;26.99;29.41;96561.75;4967280;29;19962;-71
2023/07/06 12:17:43;;;;;;;;;;;;;;;27.21;30.05;96557.22;4967173;29;19965;-71
2023/07/06 12:20:14;;;;;;;;;;;;;;;27.47;30.65;96566.03;4968455;29;19965;-71
2023/07/06 12:22:51;;;;;;;;;;;;;;;27.82;30.45;96562.34;4968217;28;20235;-71
2023/07/06 12:25:17;;;;;;;;;;;;;;;28.02;29.32;96564.31;4967249;29;19960;-71
2023/07/06 12:27:43;;;;;;;;;;;;;;;28.08;30.13;96560.28;4968561;29;20231;-71
2023/07/06 12:30:12;;;;;;;;;;;;;;;28.08;29.75;96556.81;4967847;29;19976;-73
2023/07/06 12:32:38;;;;;;;;;;;;;;;27.99;30.44;96550.69;4966869;29;19951;-72
2023/07/06 12:35:08;;;;;;;;;;;;;;;27.72;30.24;96556.22;4968687;29;19963;-71
2023/07/06 12:37:34;;;;;;;;;;;;;;;27.58;31.06;96566.44;4967930;29;20023;-71
2023/07/06 12:40:00;;;;;;;;;;;;;;;27.68;31.48;96555.28;4968067;29;19954;-71
2023/07/06 12:42:26;;;;;;;;;;;;;;;27.57;31.32;96554.06;4966806;29;20289;-71
2023/07/06 12:44:52;;;;;;;;;;;;;;;27.26;30.69;96552.50;4967988;29;20230;-72
2023/07/06 12:47:21;;;;;;;;;;;;;;;27.01;31.46;96554.13;4966650;29;19965;-73
2023/07/06 12:49:49;;;;;;;;;;;;;;;26.92;32.46;96558.75;4966614;29;20162;-75
2023/07/06 12:52:17;;;;;;;;;;;;;;;27.14;32.00;96547.75;4967947;29;19959;-75
2023/07/06 12:54:52;;;;;;;;;;;;;;;27.39;29.54;96541.84;4967399;29;19968;-75
2023/07/06 12:57:22;;;;;;;;;;;;;;;27.41;30.15;96539.59;4966455;29;19958;-76